Map

Track Data

SID SEASON NUMBER BASIN SUBBASIN NAME ISO_TIME NATURE LAT LON WMO_WIND WMO_PRES WMO_AGENCY TRACK_TYPE DIST2LAND LANDFALL IFLAG USA_AGENCY USA_ATCF_ID USA_LAT USA_LON USA_RECORD USA_STATUS USA_WIND USA_PRES USA_SSHS USA_R34_NE USA_R34_SE USA_R34_SW USA_R34_NW USA_R50_NE USA_R50_SE USA_R50_SW USA_R50_NW USA_R64_NE USA_R64_SE USA_R64_SW USA_R64_NW USA_POCI USA_ROCI USA_RMW USA_EYE TOKYO_LAT TOKYO_LON TOKYO_GRADE TOKYO_WIND TOKYO_PRES TOKYO_R50_DIR TOKYO_R50_LONG TOKYO_R50_SHORT TOKYO_R30_DIR TOKYO_R30_LONG TOKYO_R30_SHORT TOKYO_LAND CMA_LAT CMA_LON CMA_CAT CMA_WIND CMA_PRES HKO_LAT HKO_LON HKO_CAT HKO_WIND HKO_PRES NEWDELHI_LAT NEWDELHI_LON NEWDELHI_GRADE NEWDELHI_WIND NEWDELHI_PRES NEWDELHI_CI NEWDELHI_DP NEWDELHI_POCI REUNION_LAT REUNION_LON REUNION_TYPE REUNION_WIND REUNION_PRES REUNION_TNUM REUNION_CI REUNION_RMW REUNION_R34_NE REUNION_R34_SE REUNION_R34_SW REUNION_R34_NW REUNION_R50_NE REUNION_R50_SE REUNION_R50_SW REUNION_R50_NW REUNION_R64_NE REUNION_R64_SE REUNION_R64_SW REUNION_R64_NW BOM_LAT BOM_LON BOM_TYPE BOM_WIND BOM_PRES BOM_TNUM BOM_CI BOM_RMW BOM_R34_NE BOM_R34_SE BOM_R34_SW BOM_R34_NW BOM_R50_NE BOM_R50_SE BOM_R50_SW BOM_R50_NW BOM_R64_NE BOM_R64_SE BOM_R64_SW BOM_R64_NW BOM_ROCI BOM_POCI BOM_EYE BOM_POS_METHOD BOM_PRES_METHOD NADI_LAT NADI_LON NADI_CAT NADI_WIND NADI_PRES WELLINGTON_LAT WELLINGTON_LON WELLINGTON_WIND WELLINGTON_PRES DS824_LAT DS824_LON DS824_STAGE DS824_WIND DS824_PRES TD9636_LAT TD9636_LON TD9636_STAGE TD9636_WIND TD9636_PRES TD9635_LAT TD9635_LON TD9635_WIND TD9635_PRES TD9635_ROCI NEUMANN_LAT NEUMANN_LON NEUMANN_CLASS NEUMANN_WIND NEUMANN_PRES MLC_LAT MLC_LON MLC_CLASS MLC_WIND MLC_PRES USA_GUST BOM_GUST BOM_GUST_PER REUNION_GUST REUNION_GUST_PER USA_SEAHGT USA_SEARAD_NE USA_SEARAD_SE USA_SEARAD_SW USA_SEARAD_NW STORM_SPEED STORM_DIR
1872032S15434 1872 5 SI MM NOT_NAMED 1872-01-31 18:00:00 NR -14.9000 73.9000 main 1809 1765 __________O___ -1 -14.9000 73.9000 7 8 250
1872032S15434 1872 5 SI MM NOT_NAMED 1872-01-31 21:00:00 NR -15.0363 73.5111 main 1765 1717 __________P___ -1 -15.0363 73.5111 7 8 250
1872032S15434 1872 5 SI MM NOT_NAMED 1872-02-01 00:00:00 NR -15.1779 73.1176 main 1717 1672 __________P___ -1 -15.1779 73.1176 7 8 249
1872032S15434 1872 5 SI MM NOT_NAMED 1872-02-01 03:00:00 NR -15.3305 72.7153 main 1672 1624 __________P___ -1 -15.3305 72.7153 7 9 248
1872032S15434 1872 5 SI MM NOT_NAMED 1872-02-01 06:00:00 NR -15.5000 72.3000 main 1624 1576 __________O___ -1 -15.5000 72.3000 7 9 246
1872032S15434 1872 5 SI MM NOT_NAMED 1872-02-01 09:00:00 NR -15.6897 71.8701 main 1576 1528 __________P___ -1 -15.6897 71.8701 7 9 245
1872032S15434 1872 5 SI MM NOT_NAMED 1872-02-01 12:00:00 NR -15.8925 71.4351 main 1518 1470 __________P___ -1 -15.8925 71.4351 7 9 244
1872032S15434 1872 5 SI MM NOT_NAMED 1872-02-01 15:00:00 NR -16.0991 71.0076 main 1470 1423 __________P___ -1 -16.0991 71.0076 7 9 243
1872032S15434 1872 5 SI MM NOT_NAMED 1872-02-01 18:00:00 NR -16.3000 70.6000 main 1423 1389 __________O___ -1 -16.3000 70.6000 7 8 244
1872032S15434 1872 5 SI MM NOT_NAMED 1872-02-01 21:00:00 NR -16.4572 70.2479 main 1375 1341 __________P___ -1 -16.4572 70.2479 7 7 245
1872032S15434 1872 5 SI MM NOT_NAMED 1872-02-02 00:00:00 NR -16.6116 69.9137 main 1341 1303 __________P___ -1 -16.6116 69.9137 7 7 243
1872032S15434 1872 5 SI MM NOT_NAMED 1872-02-02 03:00:00 NR -16.7853 69.5727 main 1303 1256 __________P___ -1 -16.7853 69.5727 7 8 240
1872032S15434 1872 5 SI MM NOT_NAMED 1872-02-02 06:00:00 NR -17.0000 69.2000 main 1256 1205 __________O___ -1 -17.0000 69.2000 7 9 238
1872032S15434 1872 5 SI MM NOT_NAMED 1872-02-02 09:00:00 NR -17.2741 68.7450 main 1195 1144 __________P___ -1 -17.2741 68.7450 7 11 237
1872032S15434 1872 5 SI MM NOT_NAMED 1872-02-02 12:00:00 NR -17.5905 68.2578 main 1144 1084 __________P___ -1 -17.5905 68.2578 7 11 235
1872032S15434 1872 5 SI MM NOT_NAMED 1872-02-02 15:00:00 NR -17.9366 67.7667 main 1084 1021 __________P___ -1 -17.9366 67.7667 7 12 232
1872032S15434 1872 5 SI MM NOT_NAMED 1872-02-02 18:00:00 NR -18.3000 67.3000 main 1021 970 __________O___ -1 -18.3000 67.3000 7 11 229
1872032S15434 1872 5 SI MM NOT_NAMED 1872-02-02 21:00:00 NR -18.6807 66.8680 main 970 920 __________P___ -1 -18.6807 66.8680 7 11 226
1872032S15434 1872 5 SI MM NOT_NAMED 1872-02-03 00:00:00 NR -19.0723 66.4678 main 920 873 __________P___ -1 -19.0723 66.4678 7 11 223
1872032S15434 1872 5 SI MM NOT_NAMED 1872-02-03 03:00:00 NR -19.4527 66.1087 main 872 837 __________P___ -1 -19.4527 66.1087 7 10 221
1872032S15434 1872 5 SI MM NOT_NAMED 1872-02-03 06:00:00 NR -19.8000 65.8000 main 837 804 __________O___ -1 -19.8000 65.8000 7 8 222
1872032S15434 1872 5 SI MM NOT_NAMED 1872-02-03 09:00:00 NR -20.0612 65.5245 main 803 782 __________P___ -1 -20.0612 65.5245 7 7 224
1872032S15434 1872 5 SI MM NOT_NAMED 1872-02-03 12:00:00 NR -20.2921 65.3016 main 782 760 __________P___ -1 -20.2921 65.3016 7 6 219
1872032S15434 1872 5 SI MM NOT_NAMED 1872-02-03 15:00:00 NR -20.5270 65.1280 main 760 751 __________P___ -1 -20.5270 65.1280 7 6 209
1872032S15434 1872 5 SI MM NOT_NAMED 1872-02-03 18:00:00 NR -20.8000 65.0000 main 751 741 __________O___ -1 -20.8000 65.0000 7 7 202
1872032S15434 1872 5 SI MM NOT_NAMED 1872-02-03 21:00:00 NR -21.1405 64.8668 main 743 734 __________P___ -1 -21.1405 64.8668 7 8 196
1872032S15434 1872 5 SI MM NOT_NAMED 1872-02-04 00:00:00 NR -21.5248 64.7810 main 739 739 __________P___ -1 -21.5248 64.7810 7 8 187
1872032S15434 1872 5 SI MM NOT_NAMED 1872-02-04 03:00:00 NR -21.9467 64.7546 main 747 747 __________P___ -1 -21.9467 64.7546 7 9 0
1872032S15434 1872 5 SI MM NOT_NAMED 1872-02-04 06:00:00 NR -22.4000 64.8000 main 761 761 __________O___ -1 -22.4000 64.8000 7 10 172
1872032S15434 1872 5 SI MM NOT_NAMED 1872-02-04 09:00:00 NR -22.9036 64.9031 main 789 789 __________P___ -1 -22.9036 64.9031 7 11 166
1872032S15434 1872 5 SI MM NOT_NAMED 1872-02-04 12:00:00 NR -23.4298 65.0791 main 828 828 __________P___ -1 -23.4298 65.0791 7 11 160
1872032S15434 1872 5 SI MM NOT_NAMED 1872-02-04 15:00:00 NR -23.9410 65.3158 main 869 869 __________P___ -1 -23.9410 65.3158 7 11 154
1872032S15434 1872 5 SI MM NOT_NAMED 1872-02-04 18:00:00 NR -24.4000 65.6000 main 920 920 __________O___ -1 -24.4000 65.6000 7 10 147
1872032S15434 1872 5 SI MM NOT_NAMED 1872-02-04 21:00:00 NR -24.7792 65.9193 main 968 968 __________P___ -1 -24.7792 65.9193 7 9 139
1872032S15434 1872 5 SI MM NOT_NAMED 1872-02-05 00:00:00 NR -25.0908 66.2646 main 1019 1019 __________P___ -1 -25.0908 66.2646 7 9 132
1872032S15434 1872 5 SI MM NOT_NAMED 1872-02-05 03:00:00 NR -25.3570 66.6276 main 1062 1062 __________P___ -1 -25.3570 66.6276 7 8 127
1872032S15434 1872 5 SI MM NOT_NAMED 1872-02-05 06:00:00 NR -25.6000 67.0000 main 1108 __________O___ -1 -25.6000 67.0000 7 8 126

About IBTrACS Database

This database is a web-friendly format of International Best Track Archive for Climate Stewardship (IBTrACS), a global best track data archive curated by NOAA dating back to 1842.

Updated: 2021-10-21